Time;durP1;ratioP1;P1;durP2;ratioP2;P2;SDS_P1;SDS_P2;PMS_P1;PMS_P2;Temp;Humidity;BMP_temperature;BMP_pressure;BME280_temperature;BME280_humidity;BME280_pressure;Samples;Min_cycle;Max_cycle;Signal;HPM_P1;HPM_P2
2023/10/19 00:00:56;;;;;;;220.05;14.40;;;;;;;8.91;100.00;93808.56;5015949;28;20452;-81
2023/10/19 00:03:25;;;;;;;12.13;7.22;;;;;;;9.22;100.00;93812.06;5015394;28;20098;-81
2023/10/19 00:09:12;;;;;;;85.43;9.25;;;;;;;8.91;100.00;93813.00;5015709;28;20358;-81
2023/10/19 00:11:57;;;;;;;208.15;14.65;;;;;;;8.71;100.00;93803.44;5016081;28;20059;-81
2023/10/19 00:14:25;;;;;;;40.85;6.90;;;;;;;9.06;100.00;93796.47;5014125;28;20032;-81
2023/10/19 00:17:10;;;;;;;300.00;15.73;;;;;;;9.15;100.00;93791.44;5016713;28;20026;-82
2023/10/19 00:19:41;;;;;;;200.02;12.70;;;;;;;8.90;100.00;93772.25;5016944;28;20526;-82
2023/10/19 00:22:15;;;;;;;155.55;12.40;;;;;;;8.76;100.00;93793.75;5015693;28;20387;-81
2023/10/19 00:24:59;;;;;;;8.30;6.15;;;;;;;9.09;100.00;93795.13;5016963;28;20034;-82
2023/10/19 00:27:45;;;;;;;11.50;5.97;;;;;;;9.24;100.00;93789.78;5000235;28;20089;-82
2023/10/19 00:30:11;;;;;;;127.82;8.95;;;;;;;8.87;100.00;93789.25;5014188;28;20029;-81
2023/10/19 00:40:53;;;;;;;113.97;11.65;;;;;;;9.22;100.00;93768.38;5017262;28;20529;-81
2023/10/19 00:44:07;;;;;;;125.25;8.90;;;;;;;8.93;100.00;93765.72;5017242;28;20034;-81
2023/10/19 00:57:11;;;;;;;30.88;7.63;;;;;;;8.93;100.00;93755.28;5016792;28;20033;-81
2023/10/19 01:00:11;;;;;;;9.88;5.93;;;;;;;9.18;100.00;93752.47;5017196;28;20447;-82
2023/10/19 01:02:43;;;;;;;210.50;11.98;;;;;;;8.73;100.00;93747.28;5017717;28;20030;-81
2023/10/19 01:05:12;;;;;;;14.63;5.07;;;;;;;8.96;100.00;93746.88;5017107;28;20080;-82
2023/10/19 01:07:38;;;;;;;13.02;5.57;;;;;;;8.95;100.00;93758.38;5016653;28;20091;-82
2023/10/19 01:10:21;;;;;;;9.10;5.38;;;;;;;9.00;100.00;93745.28;5018186;28;20037;-82
2023/10/19 01:12:46;;;;;;;1150.60;53.70;;;;;;;8.42;100.00;93731.75;5017930;28;20391;-82
2023/10/19 01:15:17;;;;;;;18.17;5.15;;;;;;;8.85;100.00;93728.66;5016507;28;20140;-82
2023/10/19 01:17:56;;;;;;;840.22;45.40;;;;;;;8.81;100.00;93730.25;5016665;28;20030;-82
2023/10/19 01:31:22;;;;;;;20.35;1.92;;;;;;;8.52;100.00;93746.63;5016433;28;20489;-82
2023/10/19 01:36:42;;;;;;;469.75;20.45;;;;;;;8.31;100.00;93683.25;5016312;28;20481;-82
2023/10/19 01:39:11;;;;;;;216.73;9.80;;;;;;;8.39;100.00;93705.41;5016522;28;20037;-82
2023/10/19 01:41:37;;;;;;;177.02;8.70;;;;;;;8.59;100.00;93707.16;5016015;28;20038;-82
2023/10/19 01:44:06;;;;;;;4.35;2.63;;;;;;;8.55;100.00;93709.50;5018589;28;20505;-82
2023/10/19 01:46:33;;;;;;;5.93;2.60;;;;;;;8.49;100.00;93727.00;5018319;28;20041;-82
2023/10/19 01:49:02;;;;;;;11.48;2.80;;;;;;;8.46;100.00;93695.44;5018007;28;20037;-82
2023/10/19 01:51:29;;;;;;;715.47;42.08;;;;;;;8.00;100.00;93642.44;5018074;28;20045;-82
2023/10/19 01:53:58;;;;;;;10.20;2.38;;;;;;;8.32;100.00;93680.38;5017808;28;20109;-82
2023/10/19 01:59:09;;;;;;;273.60;14.20;;;;;;;8.71;100.00;93688.53;5010268;28;20152;-81
2023/10/19 02:01:37;;;;;;;2.17;1.63;;;;;;;8.77;100.00;93669.94;5018086;28;20037;-82
2023/10/19 02:04:05;;;;;;;1.38;1.17;;;;;;;8.74;100.00;93675.72;5018336;28;20088;-82
2023/10/19 02:09:39;;;;;;;318.48;12.90;;;;;;;8.26;100.00;93660.56;5017694;28;20026;-82
2023/10/19 02:11:57;;;;;;;64.43;3.35;;;;;;;8.30;100.00;93653.00;5018752;28;20354;-82
2023/10/19 02:14:33;;;;;;;6.97;1.63;;;;;;;8.61;100.00;93669.28;5017546;28;20026;-82
2023/10/19 02:17:00;;;;;;;816.00;36.17;;;;;;;8.15;100.00;93653.84;5017862;28;20037;-82
2023/10/19 02:19:31;;;;;;;48.90;3.55;;;;;;;8.17;100.00;93642.09;5017501;28;20065;-82
2023/10/19 02:21:58;;;;;;;2.35;1.58;;;;;;;7.98;100.00;93638.56;5017552;28;20513;-82
2023/10/19 02:24:25;;;;;;;2.97;1.90;;;;;;;7.99;100.00;93627.06;5017608;28;20454;-82
2023/10/19 02:26:53;;;;;;;2.28;1.63;;;;;;;8.36;100.00;93628.41;5017287;28;20084;-82
2023/10/19 02:29:19;;;;;;;2.20;1.30;;;;;;;8.51;100.00;93621.56;5017274;28;20088;-82
2023/10/19 02:31:44;;;;;;;2.17;1.40;;;;;;;8.63;100.00;93616.78;5017108;28;20037;-82
2023/10/19 02:34:11;;;;;;;1.60;1.15;;;;;;;8.81;100.00;93601.47;5017165;28;20030;-82
2023/10/19 02:36:40;;;;;;;1.63;1.20;;;;;;;8.96;100.00;93632.69;5017409;28;20038;-82
2023/10/19 02:39:07;;;;;;;134.10;7.00;;;;;;;8.81;100.00;93628.38;5017286;28;20049;-82
2023/10/19 02:41:38;;;;;;;61.60;3.70;;;;;;;8.38;100.00;93612.50;5016911;28;20038;-82
2023/10/19 02:46:41;;;;;;;65.00;3.28;;;;;;;9.05;100.00;93599.69;5018478;28;20038;-82
2023/10/19 02:49:11;;;;;;;4.47;1.10;;;;;;;8.86;100.00;93583.94;5018351;28;20037;-82
2023/10/19 02:51:44;;;;;;;1.00;0.75;;;;;;;9.04;100.00;93579.09;5016909;28;20160;-81
2023/10/19 02:54:16;;;;;;;1.42;1.00;;;;;;;9.02;100.00;93573.34;5017107;28;20061;-81
2023/10/19 02:56:42;;;;;;;1.23;0.73;;;;;;;9.14;100.00;93559.91;5018170;28;20034;-82
2023/10/19 03:02:00;;;;;;;1.25;0.90;;;;;;;9.31;100.00;93573.31;5017254;28;20096;-82
2023/10/19 03:04:28;;;;;;;233.38;8.77;;;;;;;8.76;100.00;93561.28;5016754;28;20041;-82
2023/10/19 03:06:54;;;;;;;33.85;2.22;;;;;;;9.16;100.00;93563.00;5017774;28;20426;-82
2023/10/19 03:09:28;;;;;;;1.45;1.00;;;;;;;9.34;100.00;93567.50;5017966;28;20343;-82
2023/10/19 03:14:38;;;;;;;1.73;0.90;;;;;;;9.66;100.00;93577.63;5015755;28;20084;-82
2023/10/19 03:17:05;;;;;;;6.72;0.90;;;;;;;9.49;100.00;93563.16;5017056;28;20116;-82
2023/10/19 03:19:30;;;;;;;1.10;0.60;;;;;;;9.45;100.00;93570.78;5017453;28;20029;-82
2023/10/19 03:21:55;;;;;;;4.13;1.08;;;;;;;9.60;100.00;93563.81;5016854;28;20037;-82
2023/10/19 03:24:40;;;;;;;2.42;0.60;;;;;;;9.69;100.00;93551.69;5016032;28;20037;-82
2023/10/19 03:27:15;;;;;;;0.90;0.70;;;;;;;9.92;100.00;93546.69;5016731;28;20034;-82
2023/10/19 03:32:32;;;;;;;2.70;0.85;;;;;;;9.96;100.00;93534.59;5016240;28;20513;-81
2023/10/19 03:35:35;;;;;;;2.25;0.55;;;;;;;10.10;100.00;93539.88;5017599;28;20029;-82
2023/10/19 03:38:07;;;;;;;1.42;0.80;;;;;;;10.26;100.00;93542.28;5017300;28;20033;-82
2023/10/19 03:40:34;;;;;;;1.00;0.55;;;;;;;10.34;100.00;93533.78;5017190;28;20052;-82
2023/10/19 03:43:05;;;;;;;1.00;0.70;;;;;;;10.31;100.00;93537.72;5017254;28;20053;-82
2023/10/19 03:45:52;;;;;;;1.75;0.65;;;;;;;10.29;100.00;93536.47;5017168;28;20026;-82
2023/10/19 03:48:34;;;;;;;122.90;5.32;;;;;;;9.98;100.00;93532.47;5017407;28;20030;-82
2023/10/19 03:51:02;;;;;;;0.50;0.50;;;;;;;9.89;100.00;93534.94;5016200;28;20457;-82
2023/10/19 03:53:27;;;;;;;0.93;0.35;;;;;;;10.07;100.00;93523.97;5017340;28;20036;-82
2023/10/19 03:55:54;;;;;;;0.40;0.40;;;;;;;10.17;100.00;93521.19;5016439;28;20108;-82
2023/10/19 03:58:20;;;;;;;0.60;0.50;;;;;;;10.32;100.00;93528.06;5016950;28;20394;-81
2023/10/19 04:00:48;;;;;;;1.20;0.70;;;;;;;10.46;100.00;93541.22;5016867;28;20034;-82
2023/10/19 04:03:32;;;;;;;1.25;0.68;;;;;;;10.32;100.00;93531.44;5017155;28;20088;-83
2023/10/19 04:06:01;;;;;;;1.63;1.00;;;;;;;9.51;100.00;93513.97;5015630;28;20033;-82
2023/10/19 04:08:26;;;;;;;10.80;1.05;;;;;;;9.75;100.00;93508.72;5016607;28;20122;-82
2023/10/19 04:11:08;;;;;;;1.17;0.70;;;;;;;9.71;100.00;93518.19;5015844;28;20121;-82
2023/10/19 04:13:35;;;;;;;1.67;0.95;;;;;;;10.20;100.00;93520.66;5016541;28;20030;-82
2023/10/19 04:16:01;;;;;;;1.00;0.80;;;;;;;10.04;100.00;93520.88;5019729;28;20053;-82
2023/10/19 04:18:27;;;;;;;2.30;1.00;;;;;;;9.83;100.00;93515.16;5021058;28;20120;-82
2023/10/19 04:23:18;;;;;;;0.90;0.70;;;;;;;10.39;100.00;93499.66;5020272;28;20064;-79
2023/10/19 04:25:45;;;;;;;0.90;0.82;;;;;;;10.43;100.00;93500.69;5019349;28;20033;-79
2023/10/19 04:28:13;;;;;;;2.17;0.98;;;;;;;9.95;100.00;93512.09;5020001;28;20030;-79
2023/10/19 04:30:39;;;;;;;1.40;0.98;;;;;;;10.39;100.00;93509.34;5017247;28;20064;-79
2023/10/19 04:33:09;;;;;;;36.67;1.45;;;;;;;10.45;100.00;93514.25;5016848;28;20069;-79
2023/10/19 04:35:35;;;;;;;34.30;2.55;;;;;;;10.14;100.00;93511.31;5035363;28;20053;-79
2023/10/19 04:38:02;;;;;;;347.67;13.52;;;;;;;9.79;100.00;93505.53;5019874;28;20342;-79
2023/10/19 04:40:46;;;;;;;430.65;19.70;;;;;;;9.37;100.00;93498.22;5017650;28;20458;-79
2023/10/19 04:43:11;;;;;;;3.15;1.15;;;;;;;9.74;100.00;93504.53;5020579;28;20034;-82
2023/10/19 04:45:39;;;;;;;1.40;1.20;;;;;;;9.86;100.00;93492.88;5020791;28;20324;-82
2023/10/19 04:48:06;;;;;;;169.93;9.55;;;;;;;9.98;100.00;93485.38;5018999;28;20324;-82
2023/10/19 04:53:15;;;;;;;5.47;0.80;;;;;;;10.22;100.00;93468.78;5020239;28;20344;-82
2023/10/19 04:55:42;;;;;;;1.77;1.10;;;;;;;10.23;100.00;93477.41;5020085;28;20041;-82
2023/10/19 04:58:07;;;;;;;6.45;1.33;;;;;;;10.29;100.00;93471.03;5018857;28;20022;-81
2023/10/19 05:00:33;;;;;;;12.93;1.42;;;;;;;10.08;100.00;93465.34;5018459;28;20056;-82
2023/10/19 05:03:18;;;;;;;118.50;6.40;;;;;;;10.16;100.00;93472.53;5019828;28;20029;-82
2023/10/19 05:05:44;;;;;;;107.38;5.32;;;;;;;10.07;100.00;93469.03;5019971;28;20075;-82
2023/10/19 05:08:09;;;;;;;726.47;35.50;;;;;;;9.94;100.00;93476.53;5012573;28;20034;-82
2023/10/19 05:10:54;;;;;;;31.58;2.95;;;;;;;9.76;100.00;93463.19;5020103;28;20498;-82
2023/10/19 05:13:39;;;;;;;87.95;5.68;;;;;;;9.92;100.00;93460.34;5018885;28;20033;-81
2023/10/19 05:16:04;;;;;;;764.85;39.15;;;;;;;9.74;100.00;93467.91;5019570;28;20041;-82
2023/10/19 05:18:30;;;;;;;209.20;13.35;;;;;;;9.82;100.00;93468.34;5018556;28;20037;-82
2023/10/19 05:23:39;;;;;;;73.15;3.78;;;;;;;9.57;100.00;93484.09;5018994;28;20351;-82
2023/10/19 05:26:23;;;;;;;43.33;3.30;;;;;;;9.80;100.00;93473.09;5001872;28;20112;-82
2023/10/19 05:28:49;;;;;;;273.70;12.60;;;;;;;9.11;100.00;93461.13;5019542;28;20026;-82
2023/10/19 05:31:15;;;;;;;217.93;11.30;;;;;;;9.34;100.00;93462.94;5018425;28;20049;-82
2023/10/19 05:33:59;;;;;;;197.27;8.70;;;;;;;9.32;100.00;93467.69;5019260;28;20022;-82
2023/10/19 05:36:25;;;;;;;16.73;2.72;;;;;;;9.39;100.00;93449.03;5019678;28;20040;-82
2023/10/19 05:44:19;;;;;;;614.42;31.73;;;;;;;9.56;100.00;93440.72;5019265;28;20401;-82
2023/10/19 05:46:46;;;;;;;139.23;8.43;;;;;;;9.74;100.00;93446.22;5015571;28;20045;-82
2023/10/19 05:49:30;;;;;;;26.52;3.35;;;;;;;9.93;100.00;93461.91;4999804;28;20062;-82
2023/10/19 05:51:56;;;;;;;109.00;4.82;;;;;;;9.87;100.00;93457.78;4999390;28;20057;-82
2023/10/19 05:54:23;;;;;;;2.83;2.35;;;;;;;10.12;100.00;93463.69;4999843;28;20030;-82
2023/10/19 05:56:49;;;;;;;14.88;2.80;;;;;;;10.17;100.00;93461.00;4998603;28;20034;-82
2023/10/19 05:59:33;;;;;;;774.78;38.13;;;;;;;9.57;100.00;93454.56;4999690;28;20077;-82
2023/10/19 06:01:59;;;;;;;69.18;4.25;;;;;;;9.95;100.00;93459.78;4999168;28;20022;-82
2023/10/19 06:04:24;;;;;;;43.40;3.65;;;;;;;10.04;100.00;93455.44;4999474;28;20092;-82
2023/10/19 06:06:50;;;;;;;10.38;2.40;;;;;;;9.97;100.00;93460.25;4999616;28;20427;-82
2023/10/19 06:09:15;;;;;;;3.42;2.38;;;;;;;10.22;100.00;93463.56;4998539;28;20096;-82
2023/10/19 06:12:00;;;;;;;51.63;3.63;;;;;;;10.21;100.00;93466.44;4999342;28;20447;-82
2023/10/19 06:14:44;;;;;;;12.20;2.20;;;;;;;10.40;100.00;93472.44;4999439;28;20037;-82
2023/10/19 06:17:28;;;;;;;302.25;16.58;;;;;;;9.71;100.00;93459.88;4999270;28;20061;-82
2023/10/19 06:20:19;;;;;;;486.52;21.45;;;;;;;9.64;100.00;93462.84;5014124;28;20030;-82
2023/10/19 06:22:51;;;;;;;26.35;3.25;;;;;;;10.11;100.00;93456.91;4997956;28;20356;-82
2023/10/19 06:25:18;;;;;;;39.58;3.53;;;;;;;10.15;100.00;93468.34;4998064;28;20042;-82
2023/10/19 06:27:44;;;;;;;610.58;28.05;;;;;;;9.62;100.00;93449.28;4997934;28;20340;-82
2023/10/19 06:30:28;;;;;;;153.02;6.80;;;;;;;10.13;100.00;93455.56;4997843;28;20414;-82
2023/10/19 06:32:55;;;;;;;148.48;6.53;;;;;;;10.25;100.00;93456.94;4998893;28;20030;-82
2023/10/19 06:35:22;;;;;;;644.97;31.27;;;;;;;9.65;100.00;93450.53;4998961;28;20034;-82
2023/10/19 06:38:09;;;;;;;86.97;4.28;;;;;;;10.04;100.00;93467.75;4996696;28;20073;-82
2023/10/19 06:40:37;;;;;;;376.33;21.25;;;;;;;9.72;100.00;93456.94;4998900;28;20034;-82
2023/10/19 06:43:05;;;;;;;381.52;18.30;;;;;;;9.51;100.00;93458.31;4998692;28;20116;-82
2023/10/19 06:45:30;;;;;;;33.30;2.90;;;;;;;9.82;100.00;93465.72;4997470;28;20121;-82
2023/10/19 06:47:56;;;;;;;507.15;20.88;;;;;;;9.76;100.00;93465.81;4997540;28;20419;-82
2023/10/19 06:50:41;;;;;;;100.00;6.35;;;;;;;10.20;100.00;93465.69;4997600;28;20117;-82
2023/10/19 06:53:06;;;;;;;52.22;4.15;;;;;;;10.58;100.00;93452.47;4998616;28;20042;-82
2023/10/19 06:55:32;;;;;;;21.65;3.08;;;;;;;10.60;100.00;93458.22;4998551;28;20109;-82
2023/10/19 06:57:59;;;;;;;94.07;6.25;;;;;;;10.65;100.00;93451.34;4998536;28;20136;-79
2023/10/19 07:00:27;;;;;;;201.00;9.90;;;;;;;10.96;100.00;93458.63;4998775;28;20041;-79
2023/10/19 07:02:55;;;;;;;946.40;47.03;;;;;;;10.46;100.00;93444.31;4998522;28;20077;-79
2023/10/19 07:05:39;;;;;;;194.65;9.52;;;;;;;10.28;100.00;93449.28;4998644;28;20340;-79
2023/10/19 07:08:06;;;;;;;819.30;44.20;;;;;;;9.85;100.00;93452.06;4998622;28;20030;-79
2023/10/19 07:10:34;;;;;;;8.27;2.97;;;;;;;10.48;100.00;93457.91;4997203;28;20052;-79
2023/10/19 07:13:20;;;;;;;601.13;35.25;;;;;;;9.75;100.00;93445.16;5013206;28;20065;-79
2023/10/19 07:15:46;;;;;;;648.83;30.02;;;;;;;9.65;100.00;93450.53;4997936;28;20072;-79
2023/10/19 07:18:13;;;;;;;7.10;3.78;;;;;;;10.51;100.00;93451.31;4996952;28;20039;-79
2023/10/19 07:23:26;;;;;;;480.50;24.17;;;;;;;9.98;100.00;93434.88;4997966;28;20068;-79
2023/10/19 07:25:56;;;;;;;184.93;12.40;;;;;;;10.50;100.00;93436.66;4998538;28;20058;-79
2023/10/19 07:28:42;;;;;;;662.72;28.83;;;;;;;10.10;100.00;93445.66;4997133;28;20041;-79
2023/10/19 07:31:12;;;;;;;41.47;5.30;;;;;;;10.92;100.00;93436.72;4997858;28;20064;-79
2023/10/19 07:36:42;;;;;;;42.00;4.68;;;;;;;12.14;100.00;93438.84;4997931;28;20061;-79
2023/10/19 07:39:13;;;;;;;613.10;31.25;;;;;;;11.57;100.00;93435.63;4996723;28;20030;-79
2023/10/19 07:41:40;;;;;;;132.93;8.25;;;;;;;11.31;100.00;93432.75;4997578;28;20060;-79
2023/10/19 07:44:05;;;;;;;40.50;4.82;;;;;;;11.46;100.00;93419.31;4997773;28;20034;-79
2023/10/19 07:46:49;;;;;;;81.85;6.35;;;;;;;12.10;100.00;93414.28;4996775;28;20432;-79
2023/10/19 07:49:15;;;;;;;407.02;17.65;;;;;;;11.05;100.00;93417.56;4997804;28;20037;-79
2023/10/19 07:51:51;;;;;;;456.27;17.60;;;;;;;11.08;100.00;93418.81;4997527;28;20034;-79
2023/10/19 07:54:16;;;;;;;126.82;8.32;;;;;;;11.53;100.00;93418.16;4996817;28;20081;-79
2023/10/19 07:56:42;;;;;;;566.72;24.25;;;;;;;10.92;100.00;93432.22;4997762;28;20375;-79
2023/10/19 07:59:07;;;;;;;461.30;21.70;;;;;;;10.33;100.00;93423.06;4997869;28;20493;-79
2023/10/19 08:01:33;;;;;;;165.80;9.07;;;;;;;10.84;100.00;93427.69;4997733;28;20042;-79
2023/10/19 08:09:45;;;;;;;18.60;3.50;;;;;;;11.73;100.00;93407.19;4997468;28;20089;-79
2023/10/19 08:12:13;;;;;;;96.97;7.38;;;;;;;11.91;100.00;93391.59;4997612;28;20046;-79
2023/10/19 08:14:39;;;;;;;47.90;5.55;;;;;;;12.14;100.00;93399.47;4997731;28;20038;-80
2023/10/19 08:17:04;;;;;;;92.97;6.75;;;;;;;12.09;100.00;93423.22;4996154;28;20503;-79
2023/10/19 08:19:32;;;;;;;887.42;39.38;;;;;;;11.37;100.00;93413.25;4997188;28;20041;-79
2023/10/19 08:21:58;;;;;;;791.05;38.72;;;;;;;11.26;100.00;93396.16;4996323;28;20343;-79
2023/10/19 08:24:43;;;;;;;409.10;20.88;;;;;;;11.71;100.00;93390.97;4997564;28;20118;-79
2023/10/19 08:27:29;;;;;;;693.40;30.55;;;;;;;11.28;100.00;93394.03;4997547;28;20343;-79
2023/10/19 08:29:55;;;;;;;136.60;8.50;;;;;;;11.72;100.00;93403.03;4997256;28;20089;-79
2023/10/19 08:32:21;;;;;;;89.80;6.10;;;;;;;11.77;100.00;93394.25;4995965;28;20391;-79
2023/10/19 08:34:46;;;;;;;647.53;27.67;;;;;;;11.45;100.00;93403.91;4996367;28;20089;-79
2023/10/19 08:37:13;;;;;;;20.20;4.68;;;;;;;11.81;100.00;93423.31;4997240;28;20101;-79
2023/10/19 08:39:38;;;;;;;266.02;11.95;;;;;;;11.24;100.00;93437.66;4997509;28;20042;-79
2023/10/19 08:42:04;;;;;;;244.60;13.70;;;;;;;11.03;100.00;93411.81;4995999;28;20026;-79
2023/10/19 08:44:30;;;;;;;732.47;35.45;;;;;;;10.70;100.00;93404.09;4997377;28;20081;-80
2023/10/19 08:47:15;;;;;;;415.52;18.25;;;;;;;11.23;100.00;93391.53;4997161;28;20455;-79
2023/10/19 08:49:59;;;;;;;8.80;4.20;;;;;;;11.36;100.00;93395.16;4997416;28;20053;-79
2023/10/19 08:52:26;;;;;;;241.60;14.30;;;;;;;11.49;100.00;93399.59;4997216;28;20038;-79
2023/10/19 08:55:12;;;;;;;80.68;6.50;;;;;;;11.32;100.00;93400.22;4996160;28;20034;-80
2023/10/19 08:57:39;;;;;;;152.50;9.43;;;;;;;11.27;100.00;93376.75;4997046;28;20041;-79
2023/10/19 09:00:06;;;;;;;5.07;3.90;;;;;;;11.51;100.00;93379.09;4997039;28;20121;-79
2023/10/19 09:02:33;;;;;;;4.65;3.53;;;;;;;11.49;100.00;93385.72;5000631;28;20070;-79
2023/10/19 09:04:59;;;;;;;863.03;46.05;;;;;;;11.16;100.00;93370.94;4999756;28;20081;-79
2023/10/19 09:07:30;;;;;;;462.67;21.52;;;;;;;11.40;100.00;93375.94;4999120;28;20428;-79
2023/10/19 09:09:57;;;;;;;269.90;12.55;;;;;;;11.81;100.00;93392.59;5000881;28;20034;-79
2023/10/19 09:12:23;;;;;;;162.27;8.45;;;;;;;12.30;100.00;93384.88;4999594;28;20038;-80
2023/10/19 09:15:13;;;;;;;113.63;7.50;;;;;;;12.04;100.00;93391.81;4999365;28;20112;-80
2023/10/19 09:17:39;;;;;;;16.75;4.38;;;;;;;12.68;100.00;93396.00;4999000;28;20031;-82
2023/10/19 09:20:09;;;;;;;5.70;3.45;;;;;;;13.32;100.00;93386.09;5000406;28;20125;-82
2023/10/19 09:22:36;;;;;;;88.85;6.18;;;;;;;12.97;100.00;93387.56;4998757;28;20026;-82
2023/10/19 09:25:40;;;;;;;148.85;9.52;;;;;;;13.67;100.00;93375.59;4999066;28;20133;-82
2023/10/19 09:28:06;;;;;;;112.35;6.38;;;;;;;13.34;100.00;93368.94;5000309;28;20340;-82
2023/10/19 09:30:32;;;;;;;111.72;6.68;;;;;;;13.25;100.00;93378.66;4999036;28;20030;-82
2023/10/19 09:32:58;;;;;;;467.15;21.55;;;;;;;13.11;100.00;93360.38;4998635;28;20164;-82
2023/10/19 09:36:01;;;;;;;134.90;7.70;;;;;;;13.33;100.00;93370.00;5000069;28;20108;-82
2023/10/19 09:38:48;;;;;;;336.15;13.98;;;;;;;12.99;100.00;93355.72;4999812;28;20037;-82
2023/10/19 09:41:52;;;;;;;143.25;7.50;;;;;;;13.32;100.00;93371.06;4999898;28;20034;-82
2023/10/19 09:44:18;;;;;;;;;;;;;;;13.29;100.00;93353.28;5000250;28;20066;-82
2023/10/19 09:46:45;;;;;;;72.43;5.35;;;;;;;13.04;100.00;93339.03;4998486;28;19924;-82
2023/10/19 09:49:13;;;;;;;4.88;3.70;;;;;;;13.77;100.00;93345.53;4998437;28;20487;-82
2023/10/19 09:51:39;;;;;;;37.65;5.10;;;;;;;12.64;100.00;93326.75;4998584;28;20042;-82
2023/10/19 09:54:28;;;;;;;4.45;3.47;;;;;;;13.62;100.00;93331.78;4999801;28;20065;-82
2023/10/19 09:57:16;;;;;;;5.30;3.75;;;;;;;13.85;100.00;93327.13;4998252;28;20131;-80
2023/10/19 09:59:45;;;;;;;4.78;3.95;;;;;;;13.68;100.00;93338.44;4998238;28;20050;-81
2023/10/19 10:02:15;;;;;;;3.95;3.15;;;;;;;13.82;100.00;93342.78;4998398;28;20351;-82
2023/10/19 10:10:09;;;;;;;9.68;3.67;;;;;;;14.24;100.00;93313.22;4998150;28;20045;-82
2023/10/19 10:18:41;;;;;;;5.30;3.60;;;;;;;14.50;100.00;93312.34;4998953;28;20033;-80
2023/10/19 10:21:16;;;;;;;6.90;4.60;;;;;;;14.40;100.00;93316.09;4998000;28;20049;-82
2023/10/19 10:24:17;;;;;;;5.50;4.07;;;;;;;13.95;100.00;93314.69;4999150;28;20042;-81
2023/10/19 10:27:00;;;;;;;109.78;6.70;;;;;;;13.31;100.00;93310.91;4999226;28;20053;-82
2023/10/19 10:29:26;;;;;;;15.30;5.75;;;;;;;13.64;100.00;93313.84;5014240;28;20038;-82
2023/10/19 10:31:52;;;;;;;7.38;4.65;;;;;;;13.60;100.00;93312.91;4998929;28;20038;-80
2023/10/19 10:34:36;;;;;;;9.07;5.35;;;;;;;13.66;100.00;93308.25;4997919;28;20034;-82
2023/10/19 10:37:02;;;;;;;;;;;;;;;14.05;100.00;93321.47;4999177;28;20035;-82
2023/10/19 10:39:30;;;;;;;17.40;4.93;;;;;;;14.24;100.00;93329.03;4998893;28;19920;-82
2023/10/19 10:41:57;;;;;;;61.30;6.53;;;;;;;14.77;100.00;93313.00;4997605;28;20042;-82
2023/10/19 10:44:44;;;;;;;266.83;14.40;;;;;;;14.88;100.00;93308.91;4997544;28;20038;-82
2023/10/19 10:47:21;;;;;;;9.13;4.40;;;;;;;15.50;100.00;93303.94;4997387;28;20037;-82
2023/10/19 10:49:51;;;;;;;7.47;4.30;;;;;;;15.68;100.00;93304.56;4997603;28;20509;-82
2023/10/19 10:52:34;;;;;;;4.88;3.50;;;;;;;15.30;100.00;93302.09;4997411;28;20049;-82
2023/10/19 10:55:13;;;;;;;5.50;3.10;;;;;;;15.65;100.00;93304.44;4997188;28;20061;-80
2023/10/19 10:57:57;;;;;;;9.68;3.53;;;;;;;15.26;100.00;93307.25;4997228;28;20031;-82
2023/10/19 11:00:26;;;;;;;6.80;3.75;;;;;;;14.97;100.00;93299.06;4998531;28;20344;-82
2023/10/19 11:03:08;;;;;;;6.93;3.53;;;;;;;15.20;100.00;93304.03;4996879;28;20080;-82
2023/10/19 11:05:35;;;;;;;6.90;4.32;;;;;;;14.79;100.00;93302.91;4997367;28;20084;-82
2023/10/19 11:08:09;;;;;;;564.72;24.77;;;;;;;14.35;100.00;93308.38;4998158;28;20072;-82
2023/10/19 11:10:39;;;;;;;93.10;8.35;;;;;;;13.77;100.00;93304.22;4998319;28;20038;-82
2023/10/19 11:15:53;;;;;;;55.42;7.85;;;;;;;13.45;100.00;93285.22;4997033;28;20038;-82
2023/10/19 11:18:28;;;;;;;7.95;4.25;;;;;;;13.78;100.00;93268.16;4996982;28;20070;-82
2023/10/19 11:20:59;;;;;;;10.40;6.13;;;;;;;13.86;100.00;93264.69;4997781;28;20474;-82
2023/10/19 11:23:42;;;;;;;9.02;3.50;;;;;;;14.42;100.00;93250.69;4996530;28;20035;-82
2023/10/19 11:26:09;;;;;;;10.88;5.28;;;;;;;14.84;100.00;93271.84;4996707;28;20026;-81
2023/10/19 11:28:38;;;;;;;6.50;4.43;;;;;;;15.43;100.00;93269.41;4996889;28;20054;-82
2023/10/19 11:31:49;;;;;;;8.57;4.45;;;;;;;15.61;100.00;93258.66;4996797;28;20058;-82
2023/10/19 11:34:18;;;;;;;35.80;6.57;;;;;;;14.90;100.00;93234.75;5012846;28;20041;-82
2023/10/19 11:36:44;;;;;;;41.30;7.68;;;;;;;15.03;100.00;93241.63;4997593;28;20049;-82
2023/10/19 11:39:29;;;;;;;8.25;4.60;;;;;;;15.56;100.00;93241.16;5002805;28;20033;-82
2023/10/19 11:41:54;;;;;;;11.52;4.35;;;;;;;15.01;100.00;93233.25;5015293;28;20053;-82
2023/10/19 11:44:22;;;;;;;10.60;3.67;;;;;;;15.53;100.00;93237.28;5017006;28;20033;-82
2023/10/19 11:47:06;;;;;;;9.02;5.72;;;;;;;15.36;100.00;93240.91;5015774;28;20025;-82
2023/10/19 11:49:50;;;;;;;10.07;5.70;;;;;;;15.31;100.00;93224.50;5017135;28;20033;-80
2023/10/19 11:54:59;;;;;;;;;;;;;;;15.48;100.00;93226.94;5017405;28;20034;-82
2023/10/19 12:00:13;;;;;;;12.95;6.50;;;;;;;15.95;100.00;93252.28;5029973;28;20292;-82
2023/10/19 12:05:23;;;;;;;593.63;29.13;;;;;;;14.31;100.00;93252.91;5015745;28;20084;-80
2023/10/19 12:07:49;;;;;;;33.83;7.53;;;;;;;14.90;100.00;93269.81;5015956;28;20037;-82
2023/10/19 12:10:15;;;;;;;90.57;9.73;;;;;;;14.41;100.00;93260.44;5016112;28;20030;-82
2023/10/19 12:16:23;;;;;;;15.85;8.50;;;;;;;14.10;100.00;93250.22;5028410;28;20036;-82
2023/10/19 12:18:49;;;;;;;10.15;6.72;;;;;;;14.44;100.00;93237.19;4997289;28;20064;-80
2023/10/19 12:24:01;;;;;;;12.15;7.32;;;;;;;15.06;100.00;93238.34;5016961;28;20033;-80
2023/10/19 12:26:26;;;;;;;11.07;7.60;;;;;;;15.46;100.00;93236.28;5002747;28;20049;-82
2023/10/19 12:28:52;;;;;;;58.63;7.55;;;;;;;14.54;100.00;93227.06;4996057;28;20038;-82
2023/10/19 12:31:18;;;;;;;11.50;6.45;;;;;;;15.35;100.00;93235.94;5004971;28;20124;-82
2023/10/19 12:33:44;;;;;;;76.22;9.27;;;;;;;15.21;100.00;93226.44;5015719;28;20350;-81
2023/10/19 12:38:57;;;;;;;11.88;7.45;;;;;;;14.23;100.00;93220.25;5033577;28;20026;-80
2023/10/19 12:41:23;;;;;;;9.82;4.93;;;;;;;14.71;100.00;93217.47;5019492;28;20033;-82
2023/10/19 12:43:52;;;;;;;9.93;6.20;;;;;;;14.37;100.00;93230.56;5019024;28;20038;-80
2023/10/19 12:46:19;;;;;;;11.13;7.43;;;;;;;13.94;100.00;93213.88;5018307;28;20382;-79
2023/10/19 12:48:46;;;;;;;11.63;7.25;;;;;;;13.90;100.00;93209.56;5019452;28;20389;-80
2023/10/19 12:51:30;;;;;;;10.80;6.40;;;;;;;14.02;100.00;93198.34;5019202;28;20038;-82
2023/10/19 12:53:56;;;;;;;9.38;5.88;;;;;;;14.15;100.00;93215.78;5020468;28;20041;-82
2023/10/19 12:56:40;;;;;;;15.65;5.95;;;;;;;14.03;100.00;93202.53;5002304;28;20105;-80
2023/10/19 13:01:54;;;;;;;12.88;6.97;;;;;;;13.93;100.00;93183.38;5004747;28;20349;-82
2023/10/19 13:04:23;;;;;;;14.15;6.95;;;;;;;13.90;100.00;93191.88;5034876;28;20034;-80
2023/10/19 13:09:33;;;;;;;14.20;8.20;;;;;;;13.53;100.00;93183.69;5019885;28;20049;-82
2023/10/19 13:12:23;;;;;;;37.92;10.52;;;;;;;13.74;100.00;93182.97;5020128;28;20160;-82
2023/10/19 13:14:49;;;;;;;14.02;7.07;;;;;;;13.93;100.00;93167.59;5020382;28;20459;-82
2023/10/19 13:17:14;;;;;;;9.82;6.20;;;;;;;14.11;100.00;93154.31;5019970;28;20129;-82
2023/10/19 13:20:01;;;;;;;9.30;5.78;;;;;;;14.22;100.00;93142.31;5034828;28;20045;-82
2023/10/19 13:22:26;;;;;;;25.42;7.93;;;;;;;14.03;100.00;93155.13;5018697;28;20042;-82
2023/10/19 13:27:36;;;;;;;10.50;4.93;;;;;;;14.21;100.00;93167.13;5019104;28;20124;-82
2023/10/19 13:30:01;;;;;;;10.15;4.88;;;;;;;14.38;100.00;93170.72;5018221;28;20430;-82
2023/10/19 13:32:33;;;;;;;8.27;4.47;;;;;;;14.51;100.00;93172.34;5019644;28;20034;-79
2023/10/19 13:34:58;;;;;;;9.93;3.30;;;;;;;14.89;100.00;93162.78;5020203;28;20042;-82
2023/10/19 13:37:23;;;;;;;9.93;3.65;;;;;;;15.04;100.00;93168.56;5019293;28;20048;-82